Terminal Aerodrome Forecast
Issued by NWS Sterling, VA

Current Version | Previous Version | Graphics & Text | Print | Product List | Glossary On
Versions: 1 2 3 4 5 6 7 8 9 10 11 12 13 14 15
000
FTUS41 KLWX 231740
TAFMRB
TAF
KMRB 231740Z 2318/2418 29008KT P6SM BKN050
     FM232100 29009KT P6SM SCT050
     FM240100 32005KT P6SM SCT060
     FM240800 VRB03KT 5SM BR FEW250
     FM241200 00000KT P6SM FEW250
     FM241600 VRB03KT P6SM FEW050=

USA.gov is the U.S. government's official web portal to all federal, state and local government web resources and services.